Time;durP1;ratioP1;P1;durP2;ratioP2;P2;SDS_P1;SDS_P2;PMS_P1;PMS_P2;Temp;Humidity;BMP_temperature;BMP_pressure;BME280_temperature;BME280_humidity;BME280_pressure;Samples;Min_cycle;Max_cycle;Signal;HPM_P1;HPM_P2
2024/01/03 00:00:06;;;;;;;0.13;0.13;;;;;;;10.94;94.82;97650.94;338658;28;5171;-78
2024/01/03 00:00:28;;;;;;;0.10;0.10;;;;;;;10.96;95.12;97646.47;335639;28;17678;-79
2024/01/03 00:00:43;;;;;;;0.25;0.20;;;;;;;10.97;95.07;97643.78;335565;28;17542;-78
2024/01/03 00:00:56;;;;;;;0.30;0.25;;;;;;;10.92;95.03;97645.00;335463;28;17929;-78
2024/01/03 00:01:08;;;;;;;0.20;0.20;;;;;;;10.89;95.21;97655.63;339514;28;4556;-79
2024/01/03 00:01:20;;;;;;;0.13;0.13;;;;;;;10.87;95.11;97644.50;334620;28;10359;-78
2024/01/03 00:01:33;;;;;;;0.17;0.17;;;;;;;10.81;95.44;97650.09;337690;28;5462;-78
2024/01/03 00:01:49;;;;;;;0.20;0.20;;;;;;;10.76;95.85;97659.00;335865;28;12405;-78
2024/01/03 00:02:01;;;;;;;0.20;0.20;;;;;;;10.71;96.16;97613.50;331602;28;5071;-78
2024/01/03 00:02:14;;;;;;;0.10;0.10;;;;;;;10.79;95.57;97647.59;339003;28;4520;-78
2024/01/03 00:02:26;;;;;;;1.40;0.10;;;;;;;10.88;95.42;97657.38;333419;28;13728;-78
2024/01/03 00:02:38;;;;;;;1.25;0.10;;;;;;;10.87;95.69;97644.50;337253;28;5171;-79
2024/01/03 00:02:51;;;;;;;0.80;0.20;;;;;;;10.91;95.54;97635.56;338079;28;4583;-79
2024/01/03 00:03:04;;;;;;;0.20;0.20;;;;;;;10.95;95.23;97652.63;336386;28;18755;-78
2024/01/03 00:03:16;;;;;;;0.10;0.10;;;;;;;10.95;94.78;97655.22;336119;28;10770;-78
2024/01/03 00:03:31;;;;;;;0.20;0.20;;;;;;;10.91;95.14;97638.16;335640;28;18059;-79
2024/01/03 00:03:43;;;;;;;0.20;0.20;;;;;;;10.89;94.95;97642.63;336708;28;18320;-79
2024/01/03 00:03:56;;;;;;;0.10;0.10;;;;;;;10.92;95.07;97652.81;336840;28;4766;-78
2024/01/03 00:04:09;;;;;;;0.10;0.10;;;;;;;10.85;95.24;97643.78;337449;28;18170;-78
2024/01/03 00:04:26;;;;;;;0.10;0.10;;;;;;;10.76;95.75;97652.97;336760;28;5196;-79
2024/01/03 00:04:38;;;;;;;0.10;0.10;;;;;;;10.74;95.70;97649.66;336966;28;17473;-78
2024/01/03 00:04:50;;;;;;;0.10;0.10;;;;;;;10.77;95.50;97637.28;339317;28;5401;-79
2024/01/03 00:05:04;;;;;;;0.10;0.10;;;;;;;10.78;95.11;97662.38;336869;28;12490;-78
2024/01/03 00:05:21;;;;;;;0.10;0.10;;;;;;;10.72;95.46;97647.16;340353;28;4672;-78
2024/01/03 00:05:38;;;;;;;0.13;0.10;;;;;;;10.65;96.05;97651.09;331613;28;17456;-78
2024/01/03 00:05:51;;;;;;;0.20;0.15;;;;;;;10.66;95.72;97683.09;336850;28;17777;-78
2024/01/03 00:06:04;;;;;;;0.45;0.20;;;;;;;10.74;95.87;97644.47;336140;28;18275;-79
2024/01/03 00:06:17;;;;;;;0.40;0.20;;;;;;;10.72;95.41;97657.53;337626;28;12269;-78
2024/01/03 00:06:35;;;;;;;0.25;0.10;;;;;;;10.74;95.77;97660.03;334980;28;17085;-79
2024/01/03 00:06:48;;;;;;;0.38;0.20;;;;;;;10.78;95.54;97662.38;335651;28;17841;-78
2024/01/03 00:07:01;;;;;;;0.30;0.20;;;;;;;10.70;95.87;97654.22;338449;28;5089;-79
2024/01/03 00:07:14;;;;;;;0.15;0.13;;;;;;;10.68;95.81;97656.06;335137;28;18968;-78
2024/01/03 00:07:26;;;;;;;0.25;0.20;;;;;;;10.66;95.67;97642.34;336835;28;5051;-78
2024/01/03 00:07:40;;;;;;;0.30;0.10;;;;;;;10.67;95.96;97657.03;330592;28;17977;-79
2024/01/03 00:07:52;;;;;;;0.32;0.20;;;;;;;10.75;95.97;97661.72;335103;28;17697;-78
2024/01/03 00:08:26;;;;;;;0.35;0.20;;;;;;;10.71;96.35;97648.09;337886;28;4630;-78
2024/01/03 00:08:38;;;;;;;0.10;0.10;;;;;;;10.76;96.36;97659.00;336176;28;17078;-78
2024/01/03 00:08:51;;;;;;;0.10;0.10;;;;;;;10.74;96.64;97649.66;340033;28;4591;-78
2024/01/03 00:09:04;;;;;;;0.10;0.10;;;;;;;10.76;96.94;97661.59;336374;28;17788;-78
2024/01/03 00:09:16;;;;;;;0.10;0.10;;;;;;;10.70;97.17;97654.22;334360;28;4656;-78
2024/01/03 00:09:28;;;;;;;0.10;0.10;;;;;;;10.66;96.80;97672.72;335698;28;17653;-78
2024/01/03 00:09:40;;;;;;;0.10;0.10;;;;;;;10.61;97.37;97674.78;338234;28;5177;-78
2024/01/03 00:09:56;;;;;;;0.47;0.20;;;;;;;10.54;97.79;97715.88;335089;28;10828;-78
2024/01/03 00:10:35;;;;;;;0.50;0.20;;;;;;;10.37;98.92;97668.44;336558;28;17186;-77
2024/01/03 00:10:53;;;;;;;0.10;0.10;;;;;;;10.30;99.76;97671.53;335883;28;17298;-77
2024/01/03 00:11:05;;;;;;;0.20;0.20;;;;;;;10.26;99.24;97657.88;337266;28;17994;-77
2024/01/03 00:11:20;;;;;;;0.10;0.10;;;;;;;10.11;100.00;97662.25;339819;28;4581;-76
2024/01/03 00:11:33;;;;;;;0.22;0.20;;;;;;;10.05;100.00;97672.22;337679;28;17682;-76
2024/01/03 00:11:45;;;;;;;0.30;0.20;;;;;;;9.99;100.00;97676.84;339268;28;4508;-76
2024/01/03 00:12:00;;;;;;;0.17;0.17;;;;;;;9.97;100.00;97670.91;339494;28;5796;-76
2024/01/03 00:12:22;;;;;;;0.20;0.20;;;;;;;10.02;100.00;97730.34;331011;28;17713;-75
2024/01/03 00:12:34;;;;;;;0.20;0.13;;;;;;;9.97;100.00;97678.69;336604;28;17520;-75
2024/01/03 00:12:46;;;;;;;0.10;0.10;;;;;;;9.96;100.00;97684.84;339773;28;4615;-75
2024/01/03 00:12:59;;;;;;;0.17;0.17;;;;;;;9.95;100.00;97666.75;336788;28;12632;-74
2024/01/03 00:13:37;;;;;;;0.20;0.20;;;;;;;9.99;100.00;97648.28;336348;28;17044;-75
2024/01/03 00:14:10;;;;;;;0.15;0.10;;;;;;;9.91;100.00;97681.66;331673;28;17224;-75
2024/01/03 00:14:27;;;;;;;0.17;0.15;;;;;;;9.82;100.00;97684.84;330868;28;17364;-74
2024/01/03 00:14:39;;;;;;;0.60;0.20;;;;;;;9.79;100.00;97651.28;333348;28;18790;-75
2024/01/03 00:14:51;;;;;;;0.65;0.20;;;;;;;9.79;100.00;97687.63;337568;28;5099;-75
2024/01/03 00:15:33;;;;;;;0.28;0.10;;;;;;;9.74;100.00;97672.34;334388;28;5052;-74
2024/01/03 00:15:45;;;;;;;0.13;0.10;;;;;;;9.76;100.00;97672.25;335323;28;19028;-74
2024/01/03 00:16:00;;;;;;;1.60;0.30;;;;;;;9.73;100.00;97688.81;338024;28;4526;-76
2024/01/03 00:16:22;;;;;;;1.70;0.38;;;;;;;9.58;100.00;97662.06;334699;28;17692;-75
2024/01/03 00:16:38;;;;;;;0.70;0.30;;;;;;;9.56;100.00;97676.03;335143;28;17903;-75
2024/01/03 00:16:50;;;;;;;0.10;0.10;;;;;;;9.52;100.00;97688.34;334852;28;17393;-76
2024/01/03 00:17:06;;;;;;;0.10;0.10;;;;;;;9.50;100.00;97681.59;336064;28;5128;-76
2024/01/03 00:17:19;;;;;;;0.40;0.10;;;;;;;9.46;100.00;97685.31;334258;28;17562;-76
2024/01/03 00:17:31;;;;;;;0.30;0.10;;;;;;;9.44;100.00;97662.06;334618;28;17911;-78
2024/01/03 00:17:43;;;;;;;0.17;0.10;;;;;;;9.48;100.00;97660.13;337180;28;4618;-77
2024/01/03 00:17:55;;;;;;;0.20;0.10;;;;;;;9.49;100.00;97680.75;337937;28;4529;-77
2024/01/03 00:18:30;;;;;;;0.35;0.20;;;;;;;9.39;100.00;97687.41;334641;28;18031;-76
2024/01/03 00:18:57;;;;;;;0.88;0.17;;;;;;;9.36;100.00;97666.88;335708;28;17370;-77
2024/01/03 00:19:16;;;;;;;0.50;0.20;;;;;;;9.39;100.00;97682.22;332620;28;17267;-77
2024/01/03 00:19:28;;;;;;;0.10;0.10;;;;;;;9.34;100.00;97692.88;334160;28;19554;-77
2024/01/03 00:19:42;;;;;;;0.30;0.10;;;;;;;9.28;100.00;97695.00;334448;28;13197;-77
2024/01/03 00:19:55;;;;;;;0.30;0.20;;;;;;;9.33;100.00;97664.44;336920;28;4952;-77
2024/01/03 00:20:08;;;;;;;0.15;0.13;;;;;;;9.36;100.00;97695.38;334817;28;18208;-77
2024/01/03 00:20:20;;;;;;;0.20;0.20;;;;;;;9.29;100.00;97686.28;337364;28;4565;-77
2024/01/03 00:20:35;;;;;;;0.70;0.40;;;;;;;9.25;100.00;97677.03;334215;28;18402;-77
2024/01/03 00:20:47;;;;;;;1.05;0.45;;;;;;;9.21;100.00;97676.34;335053;28;18205;-77
2024/01/03 00:20:59;;;;;;;1.95;0.35;;;;;;;9.12;100.00;97677.75;332819;28;5541;-78
2024/01/03 00:21:17;;;;;;;1.50;0.20;;;;;;;9.17;100.00;97680.88;336985;28;4560;-77
2024/01/03 00:21:30;;;;;;;0.22;0.20;;;;;;;9.15;100.00;97677.53;333535;28;17799;-77
2024/01/03 00:21:42;;;;;;;0.30;0.20;;;;;;;9.23;100.00;97686.66;334182;28;13309;-77
2024/01/03 00:21:54;;;;;;;0.40;0.20;;;;;;;9.20;100.00;97672.13;338247;28;4667;-77
2024/01/03 00:22:13;;;;;;;0.30;0.20;;;;;;;9.20;100.00;97685.91;334640;28;17738;-77
2024/01/03 00:22:30;;;;;;;0.60;0.10;;;;;;;9.20;100.00;97675.53;334563;28;17449;-77
2024/01/03 00:22:48;;;;;;;1.52;0.20;;;;;;;9.24;100.00;97696.09;335327;28;17702;-78
2024/01/03 00:23:06;;;;;;;1.40;0.20;;;;;;;9.20;100.00;97701.47;338118;28;4942;-78
2024/01/03 00:23:19;;;;;;;0.10;0.10;;;;;;;9.18;100.00;97695.53;335090;28;17507;-78
2024/01/03 00:23:38;;;;;;;0.40;0.30;;;;;;;9.12;100.00;97693.28;336530;28;5240;-78
2024/01/03 00:23:53;;;;;;;1.95;0.40;;;;;;;9.05;100.00;97693.72;330161;28;17254;-77
2024/01/03 00:24:07;;;;;;;1.50;0.10;;;;;;;8.97;100.00;97678.63;335672;28;17695;-78
2024/01/03 00:24:19;;;;;;;0.20;0.20;;;;;;;8.93;100.00;97666.75;334152;28;18184;-77
2024/01/03 00:24:41;;;;;;;0.20;0.20;;;;;;;9.04;100.00;97685.13;338353;28;5472;-77
2024/01/03 00:24:53;;;;;;;0.10;0.10;;;;;;;9.04;100.00;97687.72;335774;28;17469;-77
2024/01/03 00:25:09;;;;;;;0.10;0.10;;;;;;;9.08;100.00;97686.63;337816;28;5469;-77
2024/01/03 00:25:29;;;;;;;0.10;0.10;;;;;;;9.03;100.00;97687.81;332840;28;17968;-77
2024/01/03 00:25:41;;;;;;;0.15;0.15;;;;;;;9.00;100.00;97683.63;333326;28;17650;-77
2024/01/03 00:25:53;;;;;;;0.20;0.20;;;;;;;9.04;100.00;97668.75;333713;28;16680;-77
2024/01/03 00:26:10;;;;;;;0.30;0.30;;;;;;;8.98;100.00;97680.31;338748;28;5724;-77
2024/01/03 00:26:23;;;;;;;0.57;0.30;;;;;;;8.92;100.00;97684.06;335593;28;18903;-77
2024/01/03 00:26:39;;;;;;;0.40;0.20;;;;;;;8.95;100.00;97675.28;334895;28;17922;-77
2024/01/03 00:26:52;;;;;;;0.17;0.10;;;;;;;8.91;100.00;97689.34;330980;28;17897;-76
2024/01/03 00:27:06;;;;;;;0.20;0.10;;;;;;;8.89;100.00;97665.28;333757;28;19257;-76
2024/01/03 00:27:18;;;;;;;0.20;0.10;;;;;;;8.96;100.00;97674.38;337991;28;4574;-76
2024/01/03 00:27:32;;;;;;;0.17;0.10;;;;;;;8.97;100.00;97694.16;333555;28;18149;-76
2024/01/03 00:27:45;;;;;;;0.10;0.10;;;;;;;8.98;100.00;97691.50;334639;28;16435;-76
2024/01/03 00:27:57;;;;;;;0.10;0.10;;;;;;;8.93;100.00;97687.50;337328;28;4717;-77
2024/01/03 00:28:09;;;;;;;0.08;0.08;;;;;;;8.95;100.00;97685.66;330122;28;13197;-77
2024/01/03 00:28:25;;;;;;;0.10;0.10;;;;;;;8.96;100.00;97688.16;336953;28;4722;-77
2024/01/03 00:28:37;;;;;;;1.40;0.10;;;;;;;8.92;100.00;97696.19;334438;28;18891;-77
2024/01/03 00:28:49;;;;;;;2.00;0.20;;;;;;;8.93;100.00;97684.91;335205;28;5544;-77
2024/01/03 00:29:04;;;;;;;0.80;0.22;;;;;;;8.95;100.00;97696.88;336233;28;5176;-77
2024/01/03 00:29:22;;;;;;;0.30;0.20;;;;;;;8.93;100.00;97684.91;333934;28;17986;-77
2024/01/03 00:29:51;;;;;;;0.30;0.20;;;;;;;8.90;100.00;97714.41;333962;28;17714;-76
2024/01/03 00:30:06;;;;;;;0.20;0.20;;;;;;;8.89;100.00;97678.22;334928;28;17274;-76
2024/01/03 00:30:18;;;;;;;0.10;0.10;;;;;;;8.86;100.00;97701.75;334486;28;17827;-77
2024/01/03 00:30:31;;;;;;;0.13;0.10;;;;;;;8.88;100.00;97698.13;335602;28;16561;-77
2024/01/03 00:30:43;;;;;;;0.30;0.20;;;;;;;8.88;100.00;97673.97;338430;28;5485;-77
2024/01/03 00:30:56;;;;;;;0.30;0.20;;;;;;;8.89;100.00;97712.75;335977;28;16528;-77
2024/01/03 00:31:10;;;;;;;0.28;0.17;;;;;;;8.92;100.00;97707.41;338534;28;5317;-77
2024/01/03 00:31:32;;;;;;;0.10;0.10;;;;;;;8.89;100.00;97658.31;331956;28;5453;-77
2024/01/03 00:31:45;;;;;;;0.32;0.20;;;;;;;8.95;100.00;97696.88;336231;28;17423;-76
2024/01/03 00:31:59;;;;;;;0.43;0.22;;;;;;;8.91;100.00;97668.63;334844;28;17993;-77
2024/01/03 00:32:11;;;;;;;0.30;0.20;;;;;;;8.85;100.00;97685.34;336048;28;12776;-76
2024/01/03 00:32:23;;;;;;;0.20;0.20;;;;;;;8.80;100.00;97666.66;339142;28;4582;-77
2024/01/03 00:32:35;;;;;;;0.10;0.10;;;;;;;8.80;100.00;97670.06;338216;28;4874;-76
2024/01/03 00:32:58;;;;;;;0.05;0.05;;;;;;;8.72;100.00;97672.25;335298;28;17469;-77
2024/01/03 00:33:17;;;;;;;0.03;0.03;;;;;;;8.69;100.00;97693.16;335916;28;17562;-76
2024/01/03 00:33:29;;;;;;;0.20;0.10;;;;;;;8.76;100.00;97660.81;338395;28;4602;-76
2024/01/03 00:33:42;;;;;;;0.22;0.10;;;;;;;8.77;100.00;97667.66;335065;28;19323;-76
2024/01/03 00:33:56;;;;;;;0.73;0.10;;;;;;;8.73;100.00;97676.53;338719;28;4532;-76
2024/01/03 00:34:37;;;;;;;0.60;0.10;;;;;;;8.65;100.00;97678.69;336015;28;17939;-76
2024/01/03 00:34:51;;;;;;;0.10;0.10;;;;;;;8.59;100.00;97679.03;330756;29;17611;-78
2024/01/03 00:35:04;;;;;;;0.10;0.10;;;;;;;8.65;100.00;97655.38;334903;28;13782;-77
2024/01/03 00:35:17;;;;;;;0.10;0.10;;;;;;;8.71;100.00;97678.38;338129;28;5881;-77
2024/01/03 00:35:29;;;;;;;0.13;0.10;;;;;;;8.68;100.00;97678.53;336480;28;17757;-76
2024/01/03 00:35:43;;;;;;;0.10;0.10;;;;;;;8.62;100.00;97678.06;335119;28;5540;-76
2024/01/03 00:35:56;;;;;;;0.10;0.10;;;;;;;8.62;100.00;97699.59;336080;28;17707;-76
2024/01/03 00:36:11;;;;;;;0.10;0.10;;;;;;;8.65;100.00;97680.47;336953;28;18293;-76
2024/01/03 00:36:24;;;;;;;0.10;0.10;;;;;;;8.69;100.00;97695.75;336874;28;17985;-77
2024/01/03 00:36:36;;;;;;;0.10;0.10;;;;;;;8.69;100.00;97685.41;338788;28;4558;-76
2024/01/03 00:36:51;;;;;;;0.10;0.10;;;;;;;8.71;100.00;97687.88;335266;28;4645;-77
2024/01/03 00:37:17;;;;;;;0.38;0.17;;;;;;;8.65;100.00;97673.50;334084;28;11697;-77
2024/01/03 00:37:33;;;;;;;0.50;0.20;;;;;;;8.64;100.00;97687.41;334333;28;17158;-77
2024/01/03 00:37:46;;;;;;;0.32;0.10;;;;;;;8.74;100.00;97688.53;335056;28;17382;-77
2024/01/03 00:37:59;;;;;;;0.40;0.20;;;;;;;8.72;100.00;97689.56;335499;28;18678;-77
2024/01/03 00:38:11;;;;;;;0.55;0.30;;;;;;;8.78;100.00;97689.22;338742;28;4552;-77
2024/01/03 00:38:24;;;;;;;0.60;0.22;;;;;;;8.77;100.00;97693.56;336083;28;18900;-77
2024/01/03 00:38:42;;;;;;;0.40;0.10;;;;;;;8.71;100.00;97700.84;333131;28;5427;-77
2024/01/03 00:38:55;;;;;;;0.30;0.10;;;;;;;8.65;100.00;97694.22;334114;28;17945;-77
2024/01/03 00:39:08;;;;;;;0.20;0.10;;;;;;;8.67;100.00;97679.47;338953;28;4670;-77
2024/01/03 00:39:32;;;;;;;0.38;0.10;;;;;;;8.66;100.00;97697.69;335706;28;18390;-77
2024/01/03 00:39:45;;;;;;;0.35;0.10;;;;;;;8.65;100.00;97702.00;335314;28;17240;-77
2024/01/03 00:39:58;;;;;;;0.30;0.20;;;;;;;8.65;100.00;97696.81;336746;28;4539;-77
2024/01/03 00:40:30;;;;;;;0.20;0.20;;;;;;;8.66;100.00;97685.56;327579;28;18085;-77
2024/01/03 00:40:48;;;;;;;0.30;0.20;;;;;;;8.68;100.00;97683.72;331052;29;17371;-77
2024/01/03 00:41:00;;;;;;;0.10;0.10;;;;;;;8.63;100.00;97675.34;332504;28;18630;-77
2024/01/03 00:41:12;;;;;;;0.08;0.08;;;;;;;8.58;100.00;97692.94;336411;28;5282;-77
2024/01/03 00:41:24;;;;;;;0.10;0.10;;;;;;;8.61;100.00;97672.03;327932;28;18231;-77
2024/01/03 00:41:37;;;;;;;0.10;0.10;;;;;;;8.63;100.00;97679.72;335828;28;18165;-77
2024/01/03 00:41:49;;;;;;;0.10;0.10;;;;;;;8.65;100.00;97693.41;333768;28;12592;-77
2024/01/03 00:42:02;;;;;;;0.10;0.10;;;;;;;8.61;100.00;97690.16;336102;28;4608;-77
2024/01/03 00:42:15;;;;;;;0.15;0.13;;;;;;;8.63;100.00;97696.06;334423;28;18401;-77
2024/01/03 00:42:27;;;;;;;0.30;0.20;;;;;;;8.61;100.00;97692.75;336991;28;4710;-77
2024/01/03 00:42:39;;;;;;;0.60;0.30;;;;;;;8.59;100.00;97699.75;335094;28;13104;-77
2024/01/03 00:42:51;;;;;;;0.30;0.20;;;;;;;8.59;100.00;97699.75;337813;28;4535;-77
2024/01/03 00:43:03;;;;;;;0.15;0.10;;;;;;;8.55;100.00;97703.44;332869;28;4712;-77
2024/01/03 00:43:15;;;;;;;0.10;0.10;;;;;;;8.53;100.00;97700.09;334528;28;13461;-77
2024/01/03 00:43:27;;;;;;;0.50;0.20;;;;;;;8.57;100.00;97680.88;337831;28;5232;-77
2024/01/03 00:43:39;;;;;;;0.50;0.20;;;;;;;8.53;100.00;97707.88;338775;28;4548;-77
2024/01/03 00:43:51;;;;;;;0.20;0.13;;;;;;;8.49;100.00;97703.78;335697;28;18372;-77
2024/01/03 00:44:03;;;;;;;0.15;0.15;;;;;;;8.45;100.00;97713.50;336691;28;5974;-77
2024/01/03 00:44:15;;;;;;;0.10;0.10;;;;;;;8.49;100.00;97703.78;334469;28;17711;-77
2024/01/03 00:44:27;;;;;;;0.40;0.20;;;;;;;8.58;100.00;97698.09;333142;28;5275;-77
2024/01/03 00:44:39;;;;;;;0.65;0.30;;;;;;;8.59;100.00;97702.34;339160;28;5228;-77
2024/01/03 00:44:51;;;;;;;0.40;0.30;;;;;;;8.58;100.00;97695.50;337528;28;18044;-77
2024/01/03 00:45:04;;;;;;;0.15;0.15;;;;;;;8.58;100.00;97700.69;337566;28;4543;-77
2024/01/03 00:45:17;;;;;;;0.15;0.10;;;;;;;8.62;100.00;97697.00;335827;28;18184;-77
2024/01/03 00:45:29;;;;;;;0.10;0.10;;;;;;;8.62;100.00;97699.59;339451;28;5080;-77
2024/01/03 00:45:41;;;;;;;0.00;0.00;;;;;;;8.64;100.00;97700.34;336093;28;18225;-77
2024/01/03 00:45:53;;;;;;;0.10;0.10;;;;;;;8.65;100.00;97696.81;338522;28;6284;-77
2024/01/03 00:46:07;;;;;;;0.20;0.20;;;;;;;8.70;100.00;97691.41;335807;28;17964;-77
2024/01/03 00:46:19;;;;;;;0.17;0.13;;;;;;;8.66;100.00;97706.28;338530;28;5782;-77
2024/01/03 00:46:32;;;;;;;0.28;0.20;;;;;;;8.69;100.00;97684.53;335245;28;18158;-77
2024/01/03 00:46:44;;;;;;;0.20;0.20;;;;;;;8.71;100.00;97693.06;339966;28;5965;-77
2024/01/03 00:46:57;;;;;;;0.20;0.20;;;;;;;8.71;100.00;97701.69;336445;28;18089;-77
2024/01/03 00:47:09;;;;;;;0.10;0.10;;;;;;;8.74;100.00;97688.53;338782;28;4521;-77
2024/01/03 00:47:22;;;;;;;0.15;0.10;;;;;;;8.75;100.00;97689.38;330763;28;18286;-77
2024/01/03 00:47:35;;;;;;;0.30;0.10;;;;;;;8.80;100.00;97688.19;339600;28;4600;-76
2024/01/03 00:47:47;;;;;;;0.30;0.10;;;;;;;8.83;100.00;97699.31;337283;28;18189;-76
2024/01/03 00:47:59;;;;;;;0.10;0.10;;;;;;;8.85;100.00;97681.91;338172;28;4698;-77
2024/01/03 00:48:11;;;;;;;0.10;0.10;;;;;;;8.82;100.00;97689.88;334661;28;18927;-77
2024/01/03 00:48:24;;;;;;;0.20;0.20;;;;;;;8.83;100.00;97676.00;338354;28;5321;-77
2024/01/03 00:48:37;;;;;;;0.45;0.20;;;;;;;8.86;100.00;97683.59;335358;28;18298;-77
2024/01/03 00:48:49;;;;;;;1.30;0.40;;;;;;;8.85;100.00;97681.91;337749;28;18073;-77
2024/01/03 00:49:01;;;;;;;1.30;0.40;;;;;;;8.89;100.00;97680.81;335911;28;16354;-77
2024/01/03 00:49:14;;;;;;;0.22;0.20;;;;;;;8.88;100.00;97689.53;338481;28;4775;-77
2024/01/03 00:49:27;;;;;;;0.20;0.20;;;;;;;8.88;100.00;97679.16;334761;28;17805;-77
2024/01/03 00:49:40;;;;;;;0.47;0.30;;;;;;;8.83;100.00;97686.34;338904;28;4710;-77
2024/01/03 00:49:52;;;;;;;1.30;0.40;;;;;;;8.77;100.00;97683.22;335819;28;18212;-77
2024/01/03 00:50:05;;;;;;;1.20;0.20;;;;;;;8.75;100.00;97684.19;338524;28;4561;-77
2024/01/03 00:50:17;;;;;;;0.20;0.10;;;;;;;8.82;100.00;97679.53;330722;28;16819;-77
2024/01/03 00:50:29;;;;;;;0.35;0.30;;;;;;;8.84;100.00;97693.22;338269;28;4743;-77
2024/01/03 00:50:42;;;;;;;0.30;0.30;;;;;;;8.88;100.00;97695.53;335298;28;4622;-77
2024/01/03 00:50:54;;;;;;;0.28;0.28;;;;;;;8.87;100.00;97688.66;337635;28;5310;-77
2024/01/03 00:51:07;;;;;;;0.13;0.13;;;;;;;8.89;100.00;97691.19;337423;28;5243;-77
2024/01/03 00:51:19;;;;;;;0.22;0.22;;;;;;;8.87;100.00;97701.63;333729;28;17702;-77
2024/01/03 00:51:31;;;;;;;0.40;0.30;;;;;;;8.87;100.00;97699.03;337778;28;5114;-77
2024/01/03 00:51:47;;;;;;;0.30;0.20;;;;;;;8.88;100.00;97699.91;336245;28;17444;-76
2024/01/03 00:52:00;;;;;;;0.10;0.10;;;;;;;8.89;100.00;97688.59;334673;28;17744;-76
2024/01/03 00:52:12;;;;;;;0.40;0.20;;;;;;;8.88;100.00;97694.72;337432;28;13135;-77
2024/01/03 00:52:24;;;;;;;0.52;0.22;;;;;;;8.91;100.00;97687.56;339978;28;4976;-76
2024/01/03 00:52:36;;;;;;;0.43;0.13;;;;;;;8.96;100.00;97692.50;339785;28;5256;-76
2024/01/03 00:52:48;;;;;;;0.22;0.20;;;;;;;9.04;100.00;97705.03;337268;28;18923;-77
2024/01/03 00:53:00;;;;;;;0.25;0.10;;;;;;;9.04;100.00;97711.03;339364;28;5521;-77
2024/01/03 00:53:12;;;;;;;0.30;0.20;;;;;;;9.02;100.00;97702.53;335368;28;4815;-77
2024/01/03 00:53:25;;;;;;;0.10;0.10;;;;;;;9.01;100.00;97706.03;336833;28;19642;-77
2024/01/03 00:53:38;;;;;;;0.10;0.10;;;;;;;8.99;100.00;97710.47;336770;28;5531;-76
2024/01/03 00:53:50;;;;;;;0.32;0.15;;;;;;;8.93;100.00;97705.63;339716;28;4506;-76
2024/01/03 00:54:02;;;;;;;0.47;0.20;;;;;;;8.91;100.00;97700.53;339163;28;5009;-76
2024/01/03 00:54:16;;;;;;;0.40;0.20;;;;;;;8.94;100.00;97699.53;335426;28;18248;-77
2024/01/03 00:54:30;;;;;;;0.60;0.30;;;;;;;8.88;100.00;97700.72;333369;28;16840;-77
2024/01/03 00:54:44;;;;;;;0.90;0.40;;;;;;;8.91;100.00;97700.53;334131;28;18069;-76
2024/01/03 00:54:56;;;;;;;0.73;0.40;;;;;;;8.91;100.00;97699.69;335182;28;17957;-76
2024/01/03 00:55:13;;;;;;;0.22;0.20;;;;;;;8.88;100.00;97711.09;336720;28;17983;-76
2024/01/03 00:55:25;;;;;;;0.20;0.20;;;;;;;8.86;100.00;97706.91;337297;28;18133;-76
2024/01/03 00:55:37;;;;;;;0.15;0.10;;;;;;;8.91;100.00;97699.69;341345;28;4736;-76
2024/01/03 00:55:49;;;;;;;0.10;0.10;;;;;;;8.89;100.00;97701.53;337121;28;17017;-76
2024/01/03 00:56:01;;;;;;;0.28;0.28;;;;;;;8.85;100.00;97695.69;340202;28;4772;-76
2024/01/03 00:56:14;;;;;;;0.70;0.30;;;;;;;8.88;100.00;97705.06;337646;28;4906;-76
2024/01/03 00:56:29;;;;;;;0.80;0.22;;;;;;;8.88;100.00;97699.91;335788;28;13809;-76
2024/01/03 00:56:42;;;;;;;0.80;0.20;;;;;;;8.89;100.00;97701.53;338854;28;5278;-76
2024/01/03 00:56:54;;;;;;;0.38;0.20;;;;;;;8.90;100.00;97700.66;335585;28;13091;-76
2024/01/03 00:57:07;;;;;;;1.35;0.25;;;;;;;8.96;100.00;97695.94;338960;28;4706;-76
2024/01/03 00:57:19;;;;;;;1.30;0.28;;;;;;;8.99;100.00;97702.69;334546;28;16193;-77
2024/01/03 00:57:31;;;;;;;1.60;0.40;;;;;;;8.96;100.00;97702.88;333320;28;5524;-76
2024/01/03 00:57:43;;;;;;;0.60;0.40;;;;;;;8.96;100.00;97700.28;337079;28;4648;-76
2024/01/03 00:57:56;;;;;;;0.40;0.20;;;;;;;8.92;100.00;97703.97;334423;28;15635;-76
2024/01/03 00:58:10;;;;;;;0.30;0.20;;;;;;;8.91;100.00;97705.72;337307;28;4557;-77
2024/01/03 00:58:23;;;;;;;0.13;0.13;;;;;;;8.92;100.00;97699.63;332661;28;18024;-76
2024/01/03 00:58:35;;;;;;;0.10;0.10;;;;;;;8.95;100.00;97709.81;335288;28;17798;-77
2024/01/03 00:58:47;;;;;;;0.20;0.20;;;;;;;8.98;100.00;97698.44;336721;28;5383;-77
2024/01/03 00:58:59;;;;;;;0.20;0.20;;;;;;;8.95;100.00;97702.06;334504;28;13692;-76
2024/01/03 00:59:12;;;;;;;0.17;0.17;;;;;;;8.90;100.00;97703.22;337233;28;5767;-77
2024/01/03 00:59:25;;;;;;;0.10;0.10;;;;;;;8.89;100.00;97709.31;334422;28;16677;-76
2024/01/03 00:59:37;;;;;;;0.10;0.10;;;;;;;8.91;100.00;97710.91;337285;28;4553;-76
2024/01/03 00:59:50;;;;;;;0.20;0.20;;;;;;;8.86;100.00;97707.75;333476;28;19122;-77
2024/01/03 01:00:03;;;;;;;0.30;0.28;;;;;;;8.92;100.00;97712.59;335908;28;4636;-76
2024/01/03 01:00:16;;;;;;;0.20;0.15;;;;;;;8.96;100.00;97708.06;334312;28;5176;-76
2024/01/03 01:00:29;;;;;;;0.60;0.30;;;;;;;8.99;100.00;97698.38;331667;28;4705;-77
2024/01/03 01:00:41;;;;;;;0.60;0.30;;;;;;;9.00;100.00;97709.56;334222;28;17391;-76
2024/01/03 01:00:53;;;;;;;0.20;0.20;;;;;;;8.99;100.00;97710.47;336607;28;4999;-76
2024/01/03 01:01:05;;;;;;;0.13;0.13;;;;;;;8.94;100.00;97709.91;335151;28;16453;-76
2024/01/03 01:01:17;;;;;;;0.20;0.20;;;;;;;8.95;100.00;97706.38;337325;28;5005;-76
2024/01/03 01:01:29;;;;;;;0.30;0.30;;;;;;;8.97;100.00;97705.38;335965;28;4616;-76
2024/01/03 01:01:43;;;;;;;0.30;0.30;;;;;;;8.97;100.00;97707.13;330372;28;17127;-76
2024/01/03 01:01:56;;;;;;;0.35;0.28;;;;;;;8.97;100.00;97705.38;334844;28;6664;-76
2024/01/03 01:02:08;;;;;;;0.75;0.40;;;;;;;8.93;100.00;97709.09;337852;28;4666;-76
2024/01/03 01:02:20;;;;;;;0.73;0.40;;;;;;;8.95;100.00;97708.97;335166;28;15171;-77
2024/01/03 01:02:32;;;;;;;0.90;0.40;;;;;;;8.94;100.00;97707.31;337405;28;4786;-77
2024/01/03 01:02:45;;;;;;;0.30;0.20;;;;;;;8.99;100.00;97707.88;337474;28;5102;-77
2024/01/03 01:02:57;;;;;;;0.20;0.15;;;;;;;8.99;100.00;97706.13;335947;28;18692;-76
2024/01/03 01:03:09;;;;;;;0.20;0.10;;;;;;;8.95;100.00;97714.16;338611;28;6174;-76
2024/01/03 01:03:22;;;;;;;0.52;0.20;;;;;;;8.93;100.00;97705.63;335865;28;5668;-76
2024/01/03 01:03:34;;;;;;;0.50;0.20;;;;;;;8.98;100.00;97716.59;338690;28;5046;-77
2024/01/03 01:03:47;;;;;;;0.28;0.20;;;;;;;9.07;100.00;97700.50;336532;28;16231;-77
2024/01/03 01:03:59;;;;;;;0.20;0.20;;;;;;;9.10;100.00;97710.69;338924;28;4690;-76
2024/01/03 01:04:12;;;;;;;0.30;0.30;;;;;;;9.16;100.00;97710.34;335462;28;5321;-76
2024/01/03 01:04:24;;;;;;;0.20;0.20;;;;;;;9.19;100.00;97710.16;336867;28;4573;-76
2024/01/03 01:04:39;;;;;;;0.20;0.20;;;;;;;9.21;100.00;97715.25;333842;28;9685;-77
2024/01/03 01:04:51;;;;;;;0.20;0.20;;;;;;;9.15;100.00;97706.06;333614;28;19146;-76
2024/01/03 01:05:04;;;;;;;0.20;0.20;;;;;;;9.13;100.00;97710.50;335447;28;4931;-76
2024/01/03 01:05:16;;;;;;;0.22;0.20;;;;;;;9.12;100.00;97708.84;333129;28;14036;-76
2024/01/03 01:05:28;;;;;;;0.35;0.20;;;;;;;9.13;100.00;97707.91;335892;28;5093;-77
2024/01/03 01:05:41;;;;;;;0.45;0.22;;;;;;;9.11;100.00;97712.34;336678;28;5522;-77
2024/01/03 01:05:53;;;;;;;0.35;0.25;;;;;;;9.15;100.00;97708.66;335034;28;15382;-76
2024/01/03 01:06:06;;;;;;;0.50;0.40;;;;;;;9.16;100.00;97705.16;337273;28;4548;-76
2024/01/03 01:06:18;;;;;;;0.45;0.40;;;;;;;9.10;100.00;97702.91;329936;28;17935;-76
2024/01/03 01:06:30;;;;;;;0.30;0.28;;;;;;;9.06;100.00;97711.78;338193;28;5072;-76
2024/01/03 01:06:43;;;;;;;0.20;0.20;;;;;;;8.99;100.00;97713.06;334473;28;4543;-76
2024/01/03 01:06:55;;;;;;;0.13;0.13;;;;;;;9.00;100.00;97707.78;337330;28;5261;-76
2024/01/03 01:07:07;;;;;;;0.20;0.20;;;;;;;9.02;100.00;97712.91;334374;28;13275;-77
2024/01/03 01:07:19;;;;;;;1.30;0.40;;;;;;;9.07;100.00;97710.84;336637;28;5441;-76
2024/01/03 01:07:31;;;;;;;1.25;0.38;;;;;;;9.03;100.00;97711.97;337408;28;4539;-76
2024/01/03 01:07:44;;;;;;;0.88;0.30;;;;;;;9.00;100.00;97715.56;336861;28;18313;-76
2024/01/03 01:07:56;;;;;;;0.30;0.30;;;;;;;8.98;100.00;97706.22;338713;28;4568;-76